sensor_id;sensor_type;location;lat;lon;timestamp;P1;durP1;ratioP1;P2;durP2;ratioP2
66095;SDS011;53861;53.422;14.530;2023-09-19T00:00:20;13.85;;;4.75;;
66095;SDS011;53861;53.422;14.530;2023-09-19T00:02:53;10.82;;;4.35;;
66095;SDS011;53861;53.422;14.530;2023-09-19T00:05:24;9.40;;;4.47;;
66095;SDS011;53861;53.422;14.530;2023-09-19T00:07:53;13.52;;;4.78;;
66095;SDS011;53861;53.422;14.530;2023-09-19T00:10:22;12.27;;;4.13;;
66095;SDS011;53861;53.422;14.530;2023-09-19T00:12:51;11.07;;;4.35;;
66095;SDS011;53861;53.422;14.530;2023-09-19T00:15:21;13.88;;;4.43;;
66095;SDS011;53861;53.422;14.530;2023-09-19T00:17:48;13.00;;;4.50;;
66095;SDS011;53861;53.422;14.530;2023-09-19T00:20:18;14.75;;;4.43;;
66095;SDS011;53861;53.422;14.530;2023-09-19T00:22:47;12.38;;;4.60;;
66095;SDS011;53861;53.422;14.530;2023-09-19T00:25:15;13.93;;;4.30;;
66095;SDS011;53861;53.422;14.530;2023-09-19T00:27:42;14.95;;;4.72;;
66095;SDS011;53861;53.422;14.530;2023-09-19T00:30:12;9.77;;;4.32;;
66095;SDS011;53861;53.422;14.530;2023-09-19T00:32:45;11.15;;;4.35;;
66095;SDS011;53861;53.422;14.530;2023-09-19T00:35:13;11.27;;;4.47;;
66095;SDS011;53861;53.422;14.530;2023-09-19T00:37:40;9.65;;;4.35;;
66095;SDS011;53861;53.422;14.530;2023-09-19T00:40:08;10.23;;;4.63;;
66095;SDS011;53861;53.422;14.530;2023-09-19T00:42:38;11.95;;;4.22;;
66095;SDS011;53861;53.422;14.530;2023-09-19T00:45:06;10.80;;;4.75;;
66095;SDS011;53861;53.422;14.530;2023-09-19T00:47:38;11.73;;;4.63;;
66095;SDS011;53861;53.422;14.530;2023-09-19T00:50:07;14.35;;;4.80;;
66095;SDS011;53861;53.422;14.530;2023-09-19T00:55:09;12.73;;;4.25;;
66095;SDS011;53861;53.422;14.530;2023-09-19T00:57:39;9.80;;;4.50;;
66095;SDS011;53861;53.422;14.530;2023-09-19T01:00:07;14.93;;;5.65;;
66095;SDS011;53861;53.422;14.530;2023-09-19T01:02:42;14.40;;;4.80;;
66095;SDS011;53861;53.422;14.530;2023-09-19T01:05:10;11.93;;;4.60;;
66095;SDS011;53861;53.422;14.530;2023-09-19T01:07:38;12.82;;;4.95;;
66095;SDS011;53861;53.422;14.530;2023-09-19T01:10:06;13.18;;;4.72;;
66095;SDS011;53861;53.422;14.530;2023-09-19T01:12:39;13.20;;;5.05;;
66095;SDS011;53861;53.422;14.530;2023-09-19T01:15:17;14.65;;;5.20;;
66095;SDS011;53861;53.422;14.530;2023-09-19T01:17:53;13.02;;;4.60;;
66095;SDS011;53861;53.422;14.530;2023-09-19T01:20:27;15.13;;;5.15;;
66095;SDS011;53861;53.422;14.530;2023-09-19T01:23:11;14.65;;;5.00;;
66095;SDS011;53861;53.422;14.530;2023-09-19T01:28:45;19.90;;;6.15;;
66095;SDS011;53861;53.422;14.530;2023-09-19T01:31:22;15.00;;;5.15;;
66095;SDS011;53861;53.422;14.530;2023-09-19T01:33:55;13.73;;;5.43;;
66095;SDS011;53861;53.422;14.530;2023-09-19T01:36:27;15.55;;;5.30;;
66095;SDS011;53861;53.422;14.530;2023-09-19T01:38:56;17.98;;;5.90;;
66095;SDS011;53861;53.422;14.530;2023-09-19T01:41:29;11.45;;;5.22;;
66095;SDS011;53861;53.422;14.530;2023-09-19T01:44:09;13.65;;;5.65;;
66095;SDS011;53861;53.422;14.530;2023-09-19T01:46:44;16.40;;;5.05;;
66095;SDS011;53861;53.422;14.530;2023-09-19T01:49:16;15.75;;;5.90;;
66095;SDS011;53861;53.422;14.530;2023-09-19T01:51:51;17.67;;;5.53;;
66095;SDS011;53861;53.422;14.530;2023-09-19T01:54:26;17.25;;;5.95;;
66095;SDS011;53861;53.422;14.530;2023-09-19T01:56:59;18.25;;;5.55;;
66095;SDS011;53861;53.422;14.530;2023-09-19T01:59:34;14.85;;;5.82;;
66095;SDS011;53861;53.422;14.530;2023-09-19T02:02:07;15.25;;;5.60;;
66095;SDS011;53861;53.422;14.530;2023-09-19T02:04:36;20.75;;;6.13;;
66095;SDS011;53861;53.422;14.530;2023-09-19T02:07:03;17.40;;;6.03;;
66095;SDS011;53861;53.422;14.530;2023-09-19T02:09:33;17.92;;;6.32;;
66095;SDS011;53861;53.422;14.530;2023-09-19T02:12:04;20.77;;;6.13;;
66095;SDS011;53861;53.422;14.530;2023-09-19T02:14:32;17.55;;;6.30;;
66095;SDS011;53861;53.422;14.530;2023-09-19T02:17:01;17.52;;;6.13;;
66095;SDS011;53861;53.422;14.530;2023-09-19T02:19:32;18.00;;;6.38;;
66095;SDS011;53861;53.422;14.530;2023-09-19T02:21:59;18.45;;;6.70;;
66095;SDS011;53861;53.422;14.530;2023-09-19T02:24:28;13.77;;;5.15;;
66095;SDS011;53861;53.422;14.530;2023-09-19T02:26:56;24.73;;;6.60;;
66095;SDS011;53861;53.422;14.530;2023-09-19T02:29:26;15.88;;;6.38;;
66095;SDS011;53861;53.422;14.530;2023-09-19T02:31:54;23.10;;;7.10;;
66095;SDS011;53861;53.422;14.530;2023-09-19T02:34:22;19.33;;;5.57;;
66095;SDS011;53861;53.422;14.530;2023-09-19T02:36:52;20.60;;;6.60;;
66095;SDS011;53861;53.422;14.530;2023-09-19T02:39:20;22.20;;;7.00;;
66095;SDS011;53861;53.422;14.530;2023-09-19T02:41:49;21.70;;;6.78;;
66095;SDS011;53861;53.422;14.530;2023-09-19T02:44:16;20.23;;;6.28;;
66095;SDS011;53861;53.422;14.530;2023-09-19T02:46:45;17.15;;;6.82;;
66095;SDS011;53861;53.422;14.530;2023-09-19T02:49:14;25.00;;;7.10;;
66095;SDS011;53861;53.422;14.530;2023-09-19T02:51:43;22.35;;;7.25;;
66095;SDS011;53861;53.422;14.530;2023-09-19T02:54:12;20.83;;;7.63;;
66095;SDS011;53861;53.422;14.530;2023-09-19T02:56:41;21.15;;;7.70;;
66095;SDS011;53861;53.422;14.530;2023-09-19T02:59:09;27.38;;;7.85;;
66095;SDS011;53861;53.422;14.530;2023-09-19T03:01:42;19.70;;;6.50;;
66095;SDS011;53861;53.422;14.530;2023-09-19T03:04:12;21.83;;;6.93;;
66095;SDS011;53861;53.422;14.530;2023-09-19T03:06:39;22.30;;;7.72;;
66095;SDS011;53861;53.422;14.530;2023-09-19T03:09:07;23.30;;;7.28;;
66095;SDS011;53861;53.422;14.530;2023-09-19T03:11:39;26.27;;;7.45;;
66095;SDS011;53861;53.422;14.530;2023-09-19T03:14:07;23.98;;;8.38;;
66095;SDS011;53861;53.422;14.530;2023-09-19T03:16:36;25.33;;;7.72;;
66095;SDS011;53861;53.422;14.530;2023-09-19T03:19:04;22.30;;;7.72;;
66095;SDS011;53861;53.422;14.530;2023-09-19T03:21:31;22.10;;;7.82;;
66095;SDS011;53861;53.422;14.530;2023-09-19T03:23:58;24.60;;;9.00;;
66095;SDS011;53861;53.422;14.530;2023-09-19T03:26:26;31.38;;;8.02;;
66095;SDS011;53861;53.422;14.530;2023-09-19T03:28:55;24.67;;;8.63;;
66095;SDS011;53861;53.422;14.530;2023-09-19T03:31:22;24.20;;;8.57;;
66095;SDS011;53861;53.422;14.530;2023-09-19T03:33:50;21.63;;;8.50;;
66095;SDS011;53861;53.422;14.530;2023-09-19T03:36:17;25.23;;;9.02;;
66095;SDS011;53861;53.422;14.530;2023-09-19T03:38:45;27.35;;;9.20;;
66095;SDS011;53861;53.422;14.530;2023-09-19T03:41:12;28.80;;;9.05;;
66095;SDS011;53861;53.422;14.530;2023-09-19T03:43:43;23.27;;;8.75;;
66095;SDS011;53861;53.422;14.530;2023-09-19T03:46:12;27.42;;;8.68;;
66095;SDS011;53861;53.422;14.530;2023-09-19T03:48:40;27.95;;;8.68;;
66095;SDS011;53861;53.422;14.530;2023-09-19T03:51:08;24.92;;;8.02;;
66095;SDS011;53861;53.422;14.530;2023-09-19T03:53:36;24.00;;;8.48;;
66095;SDS011;53861;53.422;14.530;2023-09-19T03:56:03;26.42;;;8.63;;
66095;SDS011;53861;53.422;14.530;2023-09-19T03:58:30;22.55;;;7.35;;
66095;SDS011;53861;53.422;14.530;2023-09-19T04:00:59;26.23;;;8.25;;
66095;SDS011;53861;53.422;14.530;2023-09-19T04:03:28;22.40;;;7.80;;
66095;SDS011;53861;53.422;14.530;2023-09-19T04:06:00;29.95;;;9.20;;
66095;SDS011;53861;53.422;14.530;2023-09-19T04:08:28;26.92;;;8.80;;
66095;SDS011;53861;53.422;14.530;2023-09-19T04:10:55;23.67;;;8.80;;
66095;SDS011;53861;53.422;14.530;2023-09-19T04:13:23;27.13;;;9.55;;
66095;SDS011;53861;53.422;14.530;2023-09-19T04:15:50;25.45;;;9.32;;
66095;SDS011;53861;53.422;14.530;2023-09-19T04:18:17;26.33;;;8.98;;
66095;SDS011;53861;53.422;14.530;2023-09-19T04:20:48;27.98;;;8.63;;
66095;SDS011;53861;53.422;14.530;2023-09-19T04:23:16;31.90;;;8.98;;
66095;SDS011;53861;53.422;14.530;2023-09-19T04:25:45;28.73;;;9.20;;
66095;SDS011;53861;53.422;14.530;2023-09-19T04:28:13;22.23;;;8.82;;
66095;SDS011;53861;53.422;14.530;2023-09-19T04:30:41;30.60;;;9.13;;
66095;SDS011;53861;53.422;14.530;2023-09-19T04:33:08;29.77;;;9.68;;
66095;SDS011;53861;53.422;14.530;2023-09-19T04:35:35;26.10;;;8.52;;
66095;SDS011;53861;53.422;14.530;2023-09-19T04:38:06;31.10;;;9.05;;
66095;SDS011;53861;53.422;14.530;2023-09-19T04:40:33;29.27;;;8.85;;
66095;SDS011;53861;53.422;14.530;2023-09-19T04:43:00;26.27;;;8.77;;
66095;SDS011;53861;53.422;14.530;2023-09-19T04:45:28;23.65;;;8.35;;
66095;SDS011;53861;53.422;14.530;2023-09-19T04:47:56;23.67;;;7.45;;
66095;SDS011;53861;53.422;14.530;2023-09-19T04:50:23;30.83;;;8.60;;
66095;SDS011;53861;53.422;14.530;2023-09-19T04:52:53;24.25;;;8.05;;
66095;SDS011;53861;53.422;14.530;2023-09-19T04:55:22;20.75;;;7.75;;
66095;SDS011;53861;53.422;14.530;2023-09-19T04:57:49;25.05;;;8.98;;
66095;SDS011;53861;53.422;14.530;2023-09-19T05:00:19;29.15;;;8.00;;
66095;SDS011;53861;53.422;14.530;2023-09-19T05:02:49;21.80;;;7.47;;
66095;SDS011;53861;53.422;14.530;2023-09-19T05:05:17;21.98;;;7.63;;
66095;SDS011;53861;53.422;14.530;2023-09-19T05:07:45;27.60;;;8.20;;
66095;SDS011;53861;53.422;14.530;2023-09-19T05:10:13;24.20;;;7.60;;
66095;SDS011;53861;53.422;14.530;2023-09-19T05:12:42;22.48;;;8.40;;
66095;SDS011;53861;53.422;14.530;2023-09-19T05:15:12;30.55;;;8.50;;
66095;SDS011;53861;53.422;14.530;2023-09-19T05:17:47;22.45;;;7.65;;
66095;SDS011;53861;53.422;14.530;2023-09-19T05:20:14;29.07;;;8.17;;
66095;SDS011;53861;53.422;14.530;2023-09-19T05:22:46;27.00;;;8.35;;
66095;SDS011;53861;53.422;14.530;2023-09-19T05:25:13;24.55;;;7.88;;
66095;SDS011;53861;53.422;14.530;2023-09-19T05:27:44;32.63;;;7.90;;
66095;SDS011;53861;53.422;14.530;2023-09-19T05:30:11;22.08;;;7.93;;
66095;SDS011;53861;53.422;14.530;2023-09-19T05:32:41;23.15;;;7.38;;
66095;SDS011;53861;53.422;14.530;2023-09-19T05:35:09;24.25;;;7.28;;
66095;SDS011;53861;53.422;14.530;2023-09-19T05:37:40;23.65;;;6.63;;
66095;SDS011;53861;53.422;14.530;2023-09-19T05:40:08;21.60;;;6.78;;
66095;SDS011;53861;53.422;14.530;2023-09-19T05:42:36;19.88;;;6.55;;
66095;SDS011;53861;53.422;14.530;2023-09-19T05:45:07;21.50;;;5.80;;
66095;SDS011;53861;53.422;14.530;2023-09-19T05:47:37;25.75;;;6.10;;
66095;SDS011;53861;53.422;14.530;2023-09-19T05:50:06;17.77;;;6.03;;
66095;SDS011;53861;53.422;14.530;2023-09-19T05:52:34;24.67;;;7.10;;
66095;SDS011;53861;53.422;14.530;2023-09-19T05:55:02;14.00;;;5.70;;
66095;SDS011;53861;53.422;14.530;2023-09-19T05:57:32;17.10;;;5.88;;
66095;SDS011;53861;53.422;14.530;2023-09-19T05:59:59;15.77;;;5.30;;
66095;SDS011;53861;53.422;14.530;2023-09-19T06:02:28;16.70;;;5.63;;
66095;SDS011;53861;53.422;14.530;2023-09-19T06:04:55;16.83;;;6.18;;
66095;SDS011;53861;53.422;14.530;2023-09-19T06:07:23;23.48;;;6.55;;
66095;SDS011;53861;53.422;14.530;2023-09-19T06:09:51;19.88;;;6.00;;
66095;SDS011;53861;53.422;14.530;2023-09-19T06:12:19;24.08;;;6.10;;
66095;SDS011;53861;53.422;14.530;2023-09-19T06:14:46;20.15;;;6.03;;
66095;SDS011;53861;53.422;14.530;2023-09-19T06:17:14;20.05;;;7.05;;
66095;SDS011;53861;53.422;14.530;2023-09-19T06:19:44;17.25;;;6.30;;
66095;SDS011;53861;53.422;14.530;2023-09-19T06:22:14;18.02;;;5.82;;
66095;SDS011;53861;53.422;14.530;2023-09-19T06:24:43;17.45;;;5.65;;
66095;SDS011;53861;53.422;14.530;2023-09-19T06:27:11;18.45;;;5.30;;
66095;SDS011;53861;53.422;14.530;2023-09-19T06:29:38;16.40;;;5.70;;
66095;SDS011;53861;53.422;14.530;2023-09-19T06:32:07;17.98;;;5.20;;
66095;SDS011;53861;53.422;14.530;2023-09-19T06:34:35;19.60;;;5.50;;
66095;SDS011;53861;53.422;14.530;2023-09-19T06:37:05;16.70;;;7.40;;
66095;SDS011;53861;53.422;14.530;2023-09-19T06:39:32;18.70;;;5.53;;
66095;SDS011;53861;53.422;14.530;2023-09-19T06:42:01;15.27;;;5.05;;
66095;SDS011;53861;53.422;14.530;2023-09-19T06:44:28;18.63;;;5.63;;
66095;SDS011;53861;53.422;14.530;2023-09-19T06:46:57;14.48;;;5.20;;
66095;SDS011;53861;53.422;14.530;2023-09-19T06:49:27;13.38;;;5.30;;
66095;SDS011;53861;53.422;14.530;2023-09-19T06:51:56;16.63;;;6.43;;
66095;SDS011;53861;53.422;14.530;2023-09-19T06:54:25;19.40;;;6.03;;
66095;SDS011;53861;53.422;14.530;2023-09-19T06:56:56;19.10;;;6.03;;
66095;SDS011;53861;53.422;14.530;2023-09-19T06:59:24;17.70;;;6.30;;
66095;SDS011;53861;53.422;14.530;2023-09-19T07:01:51;22.20;;;6.00;;
66095;SDS011;53861;53.422;14.530;2023-09-19T07:04:18;16.83;;;5.50;;
66095;SDS011;53861;53.422;14.530;2023-09-19T07:06:49;18.52;;;6.20;;
66095;SDS011;53861;53.422;14.530;2023-09-19T07:09:16;17.17;;;6.03;;
66095;SDS011;53861;53.422;14.530;2023-09-19T07:11:46;17.90;;;6.32;;
66095;SDS011;53861;53.422;14.530;2023-09-19T07:14:16;18.08;;;5.78;;
66095;SDS011;53861;53.422;14.530;2023-09-19T07:16:44;23.60;;;6.43;;
66095;SDS011;53861;53.422;14.530;2023-09-19T07:19:13;20.17;;;6.20;;
66095;SDS011;53861;53.422;14.530;2023-09-19T07:21:41;21.35;;;6.30;;
66095;SDS011;53861;53.422;14.530;2023-09-19T07:24:09;17.88;;;5.80;;
66095;SDS011;53861;53.422;14.530;2023-09-19T07:26:36;18.83;;;5.88;;
66095;SDS011;53861;53.422;14.530;2023-09-19T07:29:05;14.05;;;5.75;;
66095;SDS011;53861;53.422;14.530;2023-09-19T07:31:34;18.52;;;6.00;;
66095;SDS011;53861;53.422;14.530;2023-09-19T07:34:01;19.00;;;7.18;;
66095;SDS011;53861;53.422;14.530;2023-09-19T07:36:30;21.33;;;5.90;;
66095;SDS011;53861;53.422;14.530;2023-09-19T07:38:58;20.98;;;5.80;;
66095;SDS011;53861;53.422;14.530;2023-09-19T07:41:25;25.88;;;6.18;;
66095;SDS011;53861;53.422;14.530;2023-09-19T07:43:53;20.52;;;6.18;;
66095;SDS011;53861;53.422;14.530;2023-09-19T07:46:21;17.20;;;6.22;;
66095;SDS011;53861;53.422;14.530;2023-09-19T07:48:50;22.08;;;5.85;;
66095;SDS011;53861;53.422;14.530;2023-09-19T07:51:17;18.00;;;5.68;;
66095;SDS011;53861;53.422;14.530;2023-09-19T07:53:44;16.25;;;6.07;;
66095;SDS011;53861;53.422;14.530;2023-09-19T07:56:13;15.82;;;5.05;;
66095;SDS011;53861;53.422;14.530;2023-09-19T07:58:41;21.67;;;5.72;;
66095;SDS011;53861;53.422;14.530;2023-09-19T08:01:11;18.92;;;5.72;;
66095;SDS011;53861;53.422;14.530;2023-09-19T08:03:41;19.27;;;5.53;;
66095;SDS011;53861;53.422;14.530;2023-09-19T08:06:09;18.55;;;5.05;;
66095;SDS011;53861;53.422;14.530;2023-09-19T08:08:37;22.48;;;5.85;;
66095;SDS011;53861;53.422;14.530;2023-09-19T08:11:04;23.73;;;5.68;;
66095;SDS011;53861;53.422;14.530;2023-09-19T08:13:37;14.38;;;5.40;;
66095;SDS011;53861;53.422;14.530;2023-09-19T08:16:08;22.27;;;4.97;;
66095;SDS011;53861;53.422;14.530;2023-09-19T08:18:36;16.80;;;5.18;;
66095;SDS011;53861;53.422;14.530;2023-09-19T08:21:07;18.02;;;5.32;;
66095;SDS011;53861;53.422;14.530;2023-09-19T08:23:36;13.48;;;4.65;;
66095;SDS011;53861;53.422;14.530;2023-09-19T08:26:04;16.45;;;5.05;;
66095;SDS011;53861;53.422;14.530;2023-09-19T08:28:33;18.08;;;5.57;;
66095;SDS011;53861;53.422;14.530;2023-09-19T08:31:01;15.85;;;5.45;;
66095;SDS011;53861;53.422;14.530;2023-09-19T08:33:31;19.83;;;5.30;;
66095;SDS011;53861;53.422;14.530;2023-09-19T08:35:58;18.70;;;5.05;;
66095;SDS011;53861;53.422;14.530;2023-09-19T08:38:27;15.05;;;5.30;;
66095;SDS011;53861;53.422;14.530;2023-09-19T08:40:57;15.30;;;5.00;;
66095;SDS011;53861;53.422;14.530;2023-09-19T08:43:25;17.67;;;5.38;;
66095;SDS011;53861;53.422;14.530;2023-09-19T08:45:54;17.15;;;4.75;;
66095;SDS011;53861;53.422;14.530;2023-09-19T08:48:29;20.73;;;5.60;;
66095;SDS011;53861;53.422;14.530;2023-09-19T08:51:00;19.48;;;5.30;;
66095;SDS011;53861;53.422;14.530;2023-09-19T08:53:34;12.80;;;5.13;;
66095;SDS011;53861;53.422;14.530;2023-09-19T08:56:08;19.58;;;5.85;;
66095;SDS011;53861;53.422;14.530;2023-09-19T08:58:40;23.90;;;6.07;;
66095;SDS011;53861;53.422;14.530;2023-09-19T09:01:13;17.95;;;5.55;;
66095;SDS011;53861;53.422;14.530;2023-09-19T09:03:42;14.32;;;5.70;;
66095;SDS011;53861;53.422;14.530;2023-09-19T09:06:13;17.75;;;5.30;;
66095;SDS011;53861;53.422;14.530;2023-09-19T09:08:43;14.25;;;4.65;;
66095;SDS011;53861;53.422;14.530;2023-09-19T09:11:11;16.20;;;5.30;;
66095;SDS011;53861;53.422;14.530;2023-09-19T09:13:39;19.75;;;5.30;;
66095;SDS011;53861;53.422;14.530;2023-09-19T09:16:07;24.88;;;6.15;;
66095;SDS011;53861;53.422;14.530;2023-09-19T09:18:35;18.80;;;4.97;;
66095;SDS011;53861;53.422;14.530;2023-09-19T09:21:03;22.25;;;5.63;;
66095;SDS011;53861;53.422;14.530;2023-09-19T09:23:30;20.20;;;6.05;;
66095;SDS011;53861;53.422;14.530;2023-09-19T09:26:00;20.95;;;4.55;;
66095;SDS011;53861;53.422;14.530;2023-09-19T09:28:31;11.23;;;4.63;;
66095;SDS011;53861;53.422;14.530;2023-09-19T09:30:59;17.10;;;5.20;;
66095;SDS011;53861;53.422;14.530;2023-09-19T09:33:28;13.27;;;4.35;;
66095;SDS011;53861;53.422;14.530;2023-09-19T09:35:57;18.50;;;5.25;;
66095;SDS011;53861;53.422;14.530;2023-09-19T09:38:28;15.68;;;4.60;;
66095;SDS011;53861;53.422;14.530;2023-09-19T09:40:58;15.70;;;4.50;;
66095;SDS011;53861;53.422;14.530;2023-09-19T09:43:35;15.23;;;4.80;;
66095;SDS011;53861;53.422;14.530;2023-09-19T09:46:12;17.13;;;4.50;;
66095;SDS011;53861;53.422;14.530;2023-09-19T09:48:57;12.27;;;3.80;;
66095;SDS011;53861;53.422;14.530;2023-09-19T09:51:43;16.08;;;4.18;;
66095;SDS011;53861;53.422;14.530;2023-09-19T09:54:13;14.68;;;3.90;;
66095;SDS011;53861;53.422;14.530;2023-09-19T09:56:56;16.63;;;4.63;;
66095;SDS011;53861;53.422;14.530;2023-09-19T10:02:13;17.67;;;4.20;;
66095;SDS011;53861;53.422;14.530;2023-09-19T10:04:46;13.90;;;4.05;;
66095;SDS011;53861;53.422;14.530;2023-09-19T10:07:28;13.98;;;3.70;;
66095;SDS011;53861;53.422;14.530;2023-09-19T10:10:02;21.00;;;4.57;;
66095;SDS011;53861;53.422;14.530;2023-09-19T10:12:45;14.50;;;4.03;;
66095;SDS011;53861;53.422;14.530;2023-09-19T10:15:14;13.82;;;4.28;;
66095;SDS011;53861;53.422;14.530;2023-09-19T10:17:46;19.25;;;3.80;;
66095;SDS011;53861;53.422;14.530;2023-09-19T10:20:14;19.52;;;3.90;;
66095;SDS011;53861;53.422;14.530;2023-09-19T10:23:01;16.38;;;3.78;;
66095;SDS011;53861;53.422;14.530;2023-09-19T10:25:36;13.80;;;3.67;;
66095;SDS011;53861;53.422;14.530;2023-09-19T10:28:07;13.82;;;3.38;;
66095;SDS011;53861;53.422;14.530;2023-09-19T10:30:37;11.30;;;3.38;;
66095;SDS011;53861;53.422;14.530;2023-09-19T10:33:10;15.32;;;3.95;;
66095;SDS011;53861;53.422;14.530;2023-09-19T10:35:39;16.33;;;3.80;;
66095;SDS011;53861;53.422;14.530;2023-09-19T10:38:09;11.25;;;3.80;;
66095;SDS011;53861;53.422;14.530;2023-09-19T10:40:38;13.30;;;3.67;;
66095;SDS011;53861;53.422;14.530;2023-09-19T10:43:12;12.77;;;3.55;;
66095;SDS011;53861;53.422;14.530;2023-09-19T10:45:44;11.07;;;3.33;;
66095;SDS011;53861;53.422;14.530;2023-09-19T10:48:15;16.33;;;4.55;;
66095;SDS011;53861;53.422;14.530;2023-09-19T10:50:45;14.25;;;4.20;;
66095;SDS011;53861;53.422;14.530;2023-09-19T10:53:20;14.38;;;4.65;;
66095;SDS011;53861;53.422;14.530;2023-09-19T10:55:49;10.57;;;4.03;;
66095;SDS011;53861;53.422;14.530;2023-09-19T10:58:27;12.43;;;3.65;;
66095;SDS011;53861;53.422;14.530;2023-09-19T11:00:56;12.95;;;3.28;;
66095;SDS011;53861;53.422;14.530;2023-09-19T11:03:31;10.93;;;3.25;;
66095;SDS011;53861;53.422;14.530;2023-09-19T11:06:05;14.27;;;3.40;;
66095;SDS011;53861;53.422;14.530;2023-09-19T11:11:49;12.60;;;3.10;;
66095;SDS011;53861;53.422;14.530;2023-09-19T11:20:24;10.23;;;3.40;;
66095;SDS011;53861;53.422;14.530;2023-09-19T11:23:17;8.82;;;3.13;;
66095;SDS011;53861;53.422;14.530;2023-09-19T11:25:50;10.20;;;3.17;;
66095;SDS011;53861;53.422;14.530;2023-09-19T11:34:41;13.60;;;3.45;;
66095;SDS011;53861;53.422;14.530;2023-09-19T11:40:36;18.83;;;3.38;;
66095;SDS011;53861;53.422;14.530;2023-09-19T11:46:06;11.02;;;3.30;;
66095;SDS011;53861;53.422;14.530;2023-09-19T11:48:34;11.45;;;2.90;;
66095;SDS011;53861;53.422;14.530;2023-09-19T11:51:12;12.38;;;3.30;;
66095;SDS011;53861;53.422;14.530;2023-09-19T11:53:45;14.45;;;3.45;;
66095;SDS011;53861;53.422;14.530;2023-09-19T11:56:15;12.88;;;3.38;;
66095;SDS011;53861;53.422;14.530;2023-09-19T11:58:44;11.07;;;3.38;;
66095;SDS011;53861;53.422;14.530;2023-09-19T12:01:12;10.05;;;3.17;;
66095;SDS011;53861;53.422;14.530;2023-09-19T12:03:46;11.00;;;3.10;;
66095;SDS011;53861;53.422;14.530;2023-09-19T12:06:16;10.20;;;3.28;;
66095;SDS011;53861;53.422;14.530;2023-09-19T12:08:45;16.33;;;3.67;;
66095;SDS011;53861;53.422;14.530;2023-09-19T12:11:14;14.32;;;3.80;;
66095;SDS011;53861;53.422;14.530;2023-09-19T12:13:42;11.80;;;3.65;;
66095;SDS011;53861;53.422;14.530;2023-09-19T12:16:12;11.48;;;3.50;;
66095;SDS011;53861;53.422;14.530;2023-09-19T12:18:41;11.48;;;3.63;;
66095;SDS011;53861;53.422;14.530;2023-09-19T12:21:24;9.65;;;3.47;;
66095;SDS011;53861;53.422;14.530;2023-09-19T12:24:00;9.32;;;3.67;;
66095;SDS011;53861;53.422;14.530;2023-09-19T12:26:38;10.18;;;3.78;;
66095;SDS011;53861;53.422;14.530;2023-09-19T12:29:11;15.90;;;3.47;;
66095;SDS011;53861;53.422;14.530;2023-09-19T12:31:49;10.32;;;3.80;;
66095;SDS011;53861;53.422;14.530;2023-09-19T12:34:21;11.65;;;3.60;;
66095;SDS011;53861;53.422;14.530;2023-09-19T12:37:06;11.33;;;3.90;;
66095;SDS011;53861;53.422;14.530;2023-09-19T12:39:46;14.18;;;4.30;;
66095;SDS011;53861;53.422;14.530;2023-09-19T12:42:16;12.00;;;3.90;;
66095;SDS011;53861;53.422;14.530;2023-09-19T12:44:45;9.57;;;4.00;;
66095;SDS011;53861;53.422;14.530;2023-09-19T12:47:14;14.20;;;4.00;;
66095;SDS011;53861;53.422;14.530;2023-09-19T12:52:37;11.82;;;4.30;;
66095;SDS011;53861;53.422;14.530;2023-09-19T12:55:05;15.63;;;4.20;;
66095;SDS011;53861;53.422;14.530;2023-09-19T12:57:35;10.68;;;4.07;;
66095;SDS011;53861;53.422;14.530;2023-09-19T13:00:02;12.55;;;4.00;;
66095;SDS011;53861;53.422;14.530;2023-09-19T13:02:31;15.40;;;4.20;;
66095;SDS011;53861;53.422;14.530;2023-09-19T13:04:59;19.10;;;4.50;;
66095;SDS011;53861;53.422;14.530;2023-09-19T13:07:41;14.20;;;4.68;;
66095;SDS011;53861;53.422;14.530;2023-09-19T13:10:11;12.57;;;3.97;;
66095;SDS011;53861;53.422;14.530;2023-09-19T13:12:43;14.75;;;4.50;;
66095;SDS011;53861;53.422;14.530;2023-09-19T13:15:14;12.90;;;3.72;;
66095;SDS011;53861;53.422;14.530;2023-09-19T13:17:47;20.23;;;4.22;;
66095;SDS011;53861;53.422;14.530;2023-09-19T13:20:22;13.60;;;4.35;;
66095;SDS011;53861;53.422;14.530;2023-09-19T13:22:54;14.82;;;3.95;;
66095;SDS011;53861;53.422;14.530;2023-09-19T13:25:25;11.23;;;4.10;;
66095;SDS011;53861;53.422;14.530;2023-09-19T13:27:55;12.82;;;4.72;;
66095;SDS011;53861;53.422;14.530;2023-09-19T13:30:26;15.63;;;4.57;;
66095;SDS011;53861;53.422;14.530;2023-09-19T13:33:04;20.25;;;4.50;;
66095;SDS011;53861;53.422;14.530;2023-09-19T13:35:32;12.20;;;4.38;;
66095;SDS011;53861;53.422;14.530;2023-09-19T13:38:01;17.77;;;4.72;;
66095;SDS011;53861;53.422;14.530;2023-09-19T13:40:28;18.52;;;4.47;;
66095;SDS011;53861;53.422;14.530;2023-09-19T13:43:00;14.48;;;4.32;;
66095;SDS011;53861;53.422;14.530;2023-09-19T13:45:27;20.10;;;4.68;;
66095;SDS011;53861;53.422;14.530;2023-09-19T13:47:56;14.35;;;4.50;;
66095;SDS011;53861;53.422;14.530;2023-09-19T13:50:26;11.90;;;3.60;;
66095;SDS011;53861;53.422;14.530;2023-09-19T13:52:55;14.95;;;4.00;;
66095;SDS011;53861;53.422;14.530;2023-09-19T13:55:24;13.00;;;3.80;;
66095;SDS011;53861;53.422;14.530;2023-09-19T13:57:52;14.95;;;3.92;;
66095;SDS011;53861;53.422;14.530;2023-09-19T14:00:20;12.35;;;3.70;;
66095;SDS011;53861;53.422;14.530;2023-09-19T14:02:48;16.25;;;4.53;;
66095;SDS011;53861;53.422;14.530;2023-09-19T14:05:16;18.27;;;4.40;;
66095;SDS011;53861;53.422;14.530;2023-09-19T14:07:44;16.75;;;4.82;;
66095;SDS011;53861;53.422;14.530;2023-09-19T14:10:12;15.05;;;4.40;;
66095;SDS011;53861;53.422;14.530;2023-09-19T14:12:41;15.45;;;4.00;;
66095;SDS011;53861;53.422;14.530;2023-09-19T14:15:11;14.93;;;4.15;;
66095;SDS011;53861;53.422;14.530;2023-09-19T14:17:39;14.90;;;4.15;;
66095;SDS011;53861;53.422;14.530;2023-09-19T14:20:08;11.20;;;3.60;;
66095;SDS011;53861;53.422;14.530;2023-09-19T14:22:35;16.73;;;3.88;;
66095;SDS011;53861;53.422;14.530;2023-09-19T14:25:03;11.30;;;3.70;;
66095;SDS011;53861;53.422;14.530;2023-09-19T14:27:31;10.70;;;3.97;;
66095;SDS011;53861;53.422;14.530;2023-09-19T14:30:00;13.13;;;3.70;;
66095;SDS011;53861;53.422;14.530;2023-09-19T14:32:27;12.07;;;3.80;;
66095;SDS011;53861;53.422;14.530;2023-09-19T14:34:54;9.93;;;4.03;;
66095;SDS011;53861;53.422;14.530;2023-09-19T14:37:22;11.73;;;3.85;;
66095;SDS011;53861;53.422;14.530;2023-09-19T14:39:49;12.43;;;3.42;;
66095;SDS011;53861;53.422;14.530;2023-09-19T14:42:16;12.80;;;3.90;;
66095;SDS011;53861;53.422;14.530;2023-09-19T14:44:47;17.98;;;3.72;;
66095;SDS011;53861;53.422;14.530;2023-09-19T14:47:16;12.55;;;3.55;;
66095;SDS011;53861;53.422;14.530;2023-09-19T14:49:44;11.90;;;3.65;;
66095;SDS011;53861;53.422;14.530;2023-09-19T14:52:12;17.38;;;3.67;;
66095;SDS011;53861;53.422;14.530;2023-09-19T14:54:41;13.90;;;3.55;;
66095;SDS011;53861;53.422;14.530;2023-09-19T14:57:08;11.10;;;3.45;;
66095;SDS011;53861;53.422;14.530;2023-09-19T14:59:36;11.93;;;3.20;;
66095;SDS011;53861;53.422;14.530;2023-09-19T15:02:03;15.07;;;3.80;;
66095;SDS011;53861;53.422;14.530;2023-09-19T15:04:32;11.63;;;3.15;;
66095;SDS011;53861;53.422;14.530;2023-09-19T15:07:02;10.70;;;3.58;;
66095;SDS011;53861;53.422;14.530;2023-09-19T15:09:33;14.25;;;3.20;;